createdAt,value
2019-05-02T00:00:53.583Z,98562.53
2019-05-02T00:03:22.918Z,98561.36
2019-05-02T00:05:50.491Z,98551.84
2019-05-02T00:08:18.089Z,98556.23
2019-05-02T00:10:45.803Z,98552.56
2019-05-02T00:13:13.476Z,98543.66
2019-05-02T00:15:41.078Z,98543.38
2019-05-02T00:18:09.253Z,98550.22
2019-05-02T00:20:36.272Z,98543.48
2019-05-02T00:23:04.122Z,98543.86
2019-05-02T00:25:31.217Z,98541.42
2019-05-02T00:27:59.147Z,98542.53
2019-05-02T00:30:29.989Z,98539.51
2019-05-02T00:32:58.183Z,98536.45
2019-05-02T00:35:25.143Z,98545.02
2019-05-02T00:37:52.339Z,98539.95
2019-05-02T00:40:25.075Z,98537.66
2019-05-02T00:42:53.288Z,98538.00
2019-05-02T00:45:23.400Z,98528.77
2019-05-02T00:47:49.845Z,98532.53
2019-05-02T00:50:18.030Z,98528.86
2019-05-02T00:52:45.065Z,98529.97
2019-05-02T00:55:12.357Z,98528.95
2019-05-02T00:57:39.686Z,98529.91
2019-05-02T01:00:08.041Z,98523.17
2019-05-02T01:02:48.755Z,98515.08
2019-05-02T01:05:16.439Z,98521.76
2019-05-02T01:07:43.768Z,98521.48
2019-05-02T01:10:11.432Z,98520.18
2019-05-02T01:12:39.939Z,98519.01
2019-05-02T01:15:09.765Z,98508.09
2019-05-02T01:17:37.426Z,98514.49
2019-05-02T01:20:05.787Z,98508.69
2019-05-02T01:22:33.481Z,98517.37
2019-05-02T01:25:00.781Z,98507.84
2019-05-02T01:27:36.155Z,98510.22
2019-05-02T01:30:09.307Z,98502.09
2019-05-02T01:32:44.084Z,98506.63
2019-05-02T01:35:16.408Z,98500.52
2019-05-02T01:38:01.933Z,98500.89
2019-05-02T01:40:29.585Z,98502.61
2019-05-02T01:42:57.061Z,98499.42
2019-05-02T01:45:24.569Z,98499.15
2019-05-02T01:47:52.022Z,98500.13
2019-05-02T01:50:19.476Z,98503.58
2019-05-02T01:52:46.914Z,98495.09
2019-05-02T01:55:16.959Z,98485.45
2019-05-02T01:57:44.707Z,98494.77
2019-05-02T02:00:13.559Z,98489.58
2019-05-02T02:02:40.946Z,98485.13
2019-05-02T02:05:08.700Z,98481.45
2019-05-02T02:07:36.382Z,98487.75
2019-05-02T02:10:04.307Z,98476.63
2019-05-02T02:12:31.701Z,98479.84
2019-05-02T02:14:59.132Z,98475.52
2019-05-02T02:17:26.651Z,98483.52
2019-05-02T02:19:56.672Z,98483.52
2019-05-02T02:22:26.205Z,98487.05
2019-05-02T02:25:12.019Z,98476.09
2019-05-02T02:27:39.639Z,98471.77
2019-05-02T02:30:07.538Z,98474.02
2019-05-02T02:32:34.713Z,98485.13
2019-05-02T02:35:03.698Z,98482.34
2019-05-02T02:37:31.459Z,98475.52
2019-05-02T02:39:58.894Z,98476.30
2019-05-02T02:42:31.875Z,98474.29
2019-05-02T02:44:59.783Z,98474.55
2019-05-02T02:47:26.911Z,98469.63
2019-05-02T02:49:56.024Z,98468.73
2019-05-02T02:52:23.436Z,98464.41
2019-05-02T02:54:50.604Z,98471.08
2019-05-02T02:57:25.843Z,98457.05
2019-05-02T02:59:47.145Z,98463.88
2019-05-02T03:02:14.929Z,98455.27
2019-05-02T03:04:44.295Z,98454.85
2019-05-02T03:07:10.459Z,98456.58
2019-05-02T03:09:37.507Z,98456.95
2019-05-02T03:12:21.681Z,98456.17
2019-05-02T03:14:50.547Z,98457.89
2019-05-02T03:17:20.342Z,98456.09
2019-05-02T03:19:46.871Z,98455.33
2019-05-02T03:22:14.250Z,98472.36
2019-05-02T03:24:43.923Z,98456.67
2019-05-02T03:27:10.658Z,98456.39
2019-05-02T03:29:44.300Z,98461.66
2019-05-02T03:32:25.561Z,98465.55
2019-05-02T03:34:47.237Z,98459.58
2019-05-02T03:37:10.209Z,98457.91
2019-05-02T03:39:34.323Z,98460.77
2019-05-02T03:42:03.225Z,98451.53
2019-05-02T03:44:31.367Z,98452.64
2019-05-02T03:47:02.091Z,98450.71
2019-05-02T03:49:27.359Z,98451.81
2019-05-02T03:51:56.217Z,98469.58
2019-05-02T03:54:23.831Z,98448.63
2019-05-02T03:56:51.119Z,98445.44
2019-05-02T03:59:19.520Z,98452.38
2019-05-02T04:01:46.442Z,98457.78
2019-05-02T04:04:14.202Z,98450.84
2019-05-02T04:06:44.368Z,98451.45
2019-05-02T04:09:38.913Z,98453.61
2019-05-02T04:12:11.498Z,98458.27
2019-05-02T04:14:37.931Z,98451.81
2019-05-02T04:17:03.311Z,98450.76
2019-05-02T04:19:34.784Z,98456.80
2019-05-02T04:22:01.861Z,98450.22
2019-05-02T04:24:30.480Z,98468.10
2019-05-02T04:26:58.021Z,98448.41
2019-05-02T04:29:31.076Z,98453.68
2019-05-02T04:31:55.075Z,98452.91
2019-05-02T04:34:21.915Z,98452.63
2019-05-02T04:36:59.751Z,98461.44
2019-05-02T04:39:21.257Z,98458.38
2019-05-02T04:41:48.633Z,98452.08
2019-05-02T04:44:15.499Z,98459.76
2019-05-02T04:46:42.252Z,98460.25
2019-05-02T04:49:09.473Z,98464.41
2019-05-02T04:51:38.174Z,98465.47
2019-05-02T04:54:08.989Z,98469.02
2019-05-02T04:56:42.153Z,98466.66
2019-05-02T04:59:13.828Z,98464.01
2019-05-02T05:01:46.312Z,98475.20
2019-05-02T05:04:03.337Z,98485.13
2019-05-02T05:06:30.943Z,98476.23
2019-05-02T05:09:04.042Z,98473.67
2019-05-02T05:11:27.919Z,98475.14
2019-05-02T05:13:57.669Z,98484.45
2019-05-02T05:16:23.524Z,98473.55
2019-05-02T05:18:53.145Z,98480.20
2019-05-02T05:21:18.813Z,98478.73
2019-05-02T05:23:51.733Z,98479.98
2019-05-02T05:26:17.563Z,98487.53
2019-05-02T05:28:44.613Z,98488.14
2019-05-02T05:31:18.454Z,98481.70
2019-05-02T05:33:40.115Z,98482.94
2019-05-02T05:36:08.202Z,98285.70
2019-05-02T05:38:38.393Z,98488.53
2019-05-02T05:41:08.961Z,98491.50
2019-05-02T05:43:32.972Z,98478.89
2019-05-02T05:46:09.332Z,98472.62
2019-05-02T05:48:32.193Z,98489.70
2019-05-02T05:50:58.425Z,98476.87
2019-05-02T05:53:25.170Z,98473.42
2019-05-02T05:55:53.519Z,98467.19
2019-05-02T05:58:21.943Z,98469.27
2019-05-02T06:00:53.753Z,98472.49
2019-05-02T06:03:18.060Z,98467.59
2019-05-02T06:05:45.423Z,98468.53
2019-05-02T06:08:13.904Z,98469.19
2019-05-02T06:10:43.872Z,98456.82
2019-05-02T06:13:10.837Z,98462.82
2019-05-02T06:15:39.014Z,98454.73
2019-05-02T06:18:07.429Z,98452.10
2019-05-02T06:20:34.176Z,98444.02
2019-05-02T06:23:01.343Z,98365.84
2019-05-02T06:25:34.272Z,98441.44
2019-05-02T06:28:00.232Z,98454.34
2019-05-02T06:30:27.151Z,98464.02
2019-05-02T06:32:54.985Z,98452.72
2019-05-02T06:35:23.177Z,98453.45
2019-05-02T06:37:51.814Z,98452.53
2019-05-02T06:40:18.564Z,98446.22
2019-05-02T06:42:45.288Z,98442.31
2019-05-02T06:45:12.811Z,98447.69
2019-05-02T06:47:41.832Z,98441.58
2019-05-02T06:50:08.579Z,98436.13
2019-05-02T06:52:35.949Z,98432.75
2019-05-02T06:55:04.787Z,98439.57
2019-05-02T06:57:31.513Z,98426.12
2019-05-02T06:59:58.252Z,98449.00
2019-05-02T07:02:28.299Z,98418.99
2019-05-02T07:04:54.993Z,98430.92
2019-05-02T07:07:25.128Z,98421.92
2019-05-02T07:09:52.927Z,98429.42
2019-05-02T07:12:20.315Z,98419.92
2019-05-02T07:14:47.422Z,98422.84
2019-05-02T07:17:37.808Z,98427.39
2019-05-02T07:20:05.961Z,98427.53
2019-05-02T07:22:38.579Z,98420.88
2019-05-02T07:25:06.726Z,98417.14
2019-05-02T07:27:33.602Z,98413.84
2019-05-02T07:29:59.995Z,98411.30
2019-05-02T07:32:27.024Z,98419.00
2019-05-02T07:34:53.857Z,98412.66
2019-05-02T07:37:20.929Z,98413.77
2019-05-02T07:39:47.617Z,98409.64
2019-05-02T07:42:14.374Z,98220.00
2019-05-02T07:44:41.069Z,98408.67
2019-05-02T07:47:07.846Z,98405.98
2019-05-02T07:49:34.676Z,98413.13
2019-05-02T07:52:01.579Z,98408.16
2019-05-02T07:54:29.571Z,98413.55
2019-05-02T07:56:57.019Z,98413.90
2019-05-02T07:59:25.104Z,98417.16
2019-05-02T08:01:52.339Z,98416.59
2019-05-02T08:04:18.946Z,98403.02
2019-05-02T08:06:46.449Z,98406.86
2019-05-02T08:09:13.861Z,98403.96
2019-05-02T08:11:41.611Z,98395.18
2019-05-02T08:14:08.876Z,98399.67
2019-05-02T08:16:36.374Z,98405.77
2019-05-02T08:19:05.475Z,98404.36
2019-05-02T08:21:33.959Z,98388.80
2019-05-02T08:24:02.203Z,98383.66
2019-05-02T08:26:31.402Z,98382.67
2019-05-02T08:29:01.055Z,98381.83
2019-05-02T08:31:30.121Z,98384.07
2019-05-02T08:33:56.420Z,98383.56
2019-05-02T08:36:23.457Z,98384.09
2019-05-02T08:38:53.580Z,98381.83
2019-05-02T08:41:20.267Z,98380.42
2019-05-02T08:43:48.352Z,98376.62
2019-05-02T08:46:15.954Z,98378.09
2019-05-02T08:48:43.744Z,98391.67
2019-05-02T08:51:10.606Z,98386.17
2019-05-02T08:53:37.938Z,98388.77
2019-05-02T08:56:04.779Z,98386.84
2019-05-02T08:58:31.377Z,98386.36
2019-05-02T09:00:58.482Z,98379.44
2019-05-02T09:03:25.328Z,98383.66
2019-05-02T09:06:04.967Z,98383.47
2019-05-02T09:08:22.428Z,98384.97
2019-05-02T09:10:49.438Z,98377.52
2019-05-02T09:13:23.693Z,98381.53
2019-05-02T09:15:49.959Z,98276.42
2019-05-02T09:18:13.858Z,98380.11
2019-05-02T09:20:42.368Z,98368.48
2019-05-02T09:23:09.096Z,98374.95
2019-05-02T09:25:37.015Z,98368.52
2019-05-02T09:28:03.934Z,98385.64
2019-05-02T09:30:32.696Z,98370.92
2019-05-02T09:33:02.769Z,98371.64
2019-05-02T09:35:28.331Z,98375.99
2019-05-02T09:37:55.181Z,98372.53
2019-05-02T09:40:22.332Z,98359.38
2019-05-02T09:42:53.526Z,98361.73
2019-05-02T09:45:20.008Z,98370.93
2019-05-02T09:47:56.677Z,98373.66
2019-05-02T09:50:20.570Z,98377.41
2019-05-02T09:52:45.817Z,98368.70
2019-05-02T09:55:15.011Z,98354.44
2019-05-02T09:57:42.818Z,98355.83
2019-05-02T10:00:14.871Z,98348.73
2019-05-02T10:02:41.948Z,98351.34
2019-05-02T10:05:09.315Z,98171.73
2019-05-02T10:07:36.038Z,98341.62
2019-05-02T10:10:06.741Z,98346.73
2019-05-02T10:12:33.702Z,98341.94
2019-05-02T10:15:02.318Z,98334.11
2019-05-02T10:17:29.201Z,98352.83
2019-05-02T10:19:57.284Z,98338.95
2019-05-02T10:22:26.665Z,98338.58
2019-05-02T10:24:53.251Z,98330.98
2019-05-02T10:27:21.659Z,98325.55
2019-05-02T10:29:48.810Z,98315.65
2019-05-02T10:32:16.765Z,98324.48
2019-05-02T10:34:47.564Z,98327.08
2019-05-02T10:37:13.488Z,98319.14
2019-05-02T10:39:40.089Z,98318.30
2019-05-02T10:42:06.826Z,98319.70
2019-05-02T10:44:36.433Z,98297.70
2019-05-02T10:47:03.427Z,98314.98
2019-05-02T10:49:32.236Z,98296.87
2019-05-02T10:51:59.386Z,98302.40
2019-05-02T10:54:27.956Z,98305.22
2019-05-02T10:56:55.983Z,98301.81
2019-05-02T10:59:23.102Z,98257.72
2019-05-02T11:01:52.200Z,98307.09
2019-05-02T11:04:19.155Z,98297.20
2019-05-02T11:06:46.459Z,98296.38
2019-05-02T11:09:16.701Z,98296.75
2019-05-02T11:11:42.600Z,98292.80
2019-05-02T11:14:13.755Z,98282.62
2019-05-02T11:16:45.529Z,98292.50
2019-05-02T11:19:23.377Z,98276.34
2019-05-02T11:21:56.403Z,98281.48
2019-05-02T11:24:19.644Z,98275.08
2019-05-02T11:26:46.724Z,98281.80
2019-05-02T11:29:13.629Z,98279.25
2019-05-02T11:31:42.770Z,98285.53
2019-05-02T11:34:12.327Z,98103.97
2019-05-02T11:36:42.012Z,97998.50
2019-05-02T11:39:18.603Z,98272.17
2019-05-02T11:41:37.774Z,98266.43
2019-05-02T11:44:04.944Z,98276.81
2019-05-02T11:46:33.020Z,98268.97
2019-05-02T11:49:02.211Z,98262.41
2019-05-02T11:51:29.232Z,98264.45
2019-05-02T11:53:59.271Z,98260.89
2019-05-02T11:56:24.622Z,98263.87
2019-05-02T11:58:52.816Z,98251.06
2019-05-02T12:01:35.063Z,98246.92
2019-05-02T12:03:52.630Z,98244.88
2019-05-02T12:06:19.928Z,98245.66
2019-05-02T12:08:49.340Z,98257.75
2019-05-02T12:11:17.760Z,98251.21
2019-05-02T12:13:47.213Z,98248.52
2019-05-02T12:16:14.239Z,98254.45
2019-05-02T12:18:41.932Z,98246.56
2019-05-02T12:21:08.793Z,98248.98
2019-05-02T12:23:36.413Z,98250.97
2019-05-02T12:26:03.422Z,98244.70
2019-05-02T12:28:32.372Z,98252.13
2019-05-02T12:30:59.238Z,98251.84
2019-05-02T12:33:28.154Z,98234.03
2019-05-02T12:35:55.114Z,98237.61
2019-05-02T12:38:23.106Z,98248.01
2019-05-02T12:40:51.909Z,98242.19
2019-05-02T12:43:18.518Z,98234.48
2019-05-02T12:45:45.741Z,98233.91
2019-05-02T12:48:13.049Z,98225.92
2019-05-02T12:50:41.807Z,98229.58
2019-05-02T12:53:09.248Z,98239.80
2019-05-02T12:55:35.987Z,98227.64
2019-05-02T12:58:03.251Z,98233.02
2019-05-02T13:00:32.010Z,98231.73
2019-05-02T13:03:16.788Z,98238.78
2019-05-02T13:05:43.838Z,98224.52
2019-05-02T13:08:12.297Z,98225.08
2019-05-02T13:10:53.998Z,98222.39
2019-05-02T13:13:18.975Z,98221.73
2019-05-02T13:15:45.913Z,98224.36
2019-05-02T13:18:12.813Z,98212.17
2019-05-02T13:20:41.943Z,98213.64
2019-05-02T13:23:15.260Z,98224.51
2019-05-02T13:25:42.498Z,98040.16
2019-05-02T13:28:12.188Z,98215.12
2019-05-02T13:30:55.219Z,98218.58
2019-05-02T13:33:35.834Z,98226.20
2019-05-02T13:36:02.542Z,98236.67
2019-05-02T13:38:29.779Z,98217.13
2019-05-02T13:40:56.877Z,98207.84
2019-05-02T13:43:25.395Z,98210.59
2019-05-02T13:45:57.776Z,98217.13
2019-05-02T13:48:24.717Z,98214.38
2019-05-02T13:50:51.933Z,98214.58
2019-05-02T13:53:19.147Z,98210.13
2019-05-02T13:55:47.736Z,98205.61
2019-05-02T13:58:14.442Z,98204.99
2019-05-02T14:00:44.035Z,98206.84
2019-05-02T14:03:11.907Z,98198.45
2019-05-02T14:05:42.010Z,98219.95
2019-05-02T14:08:22.358Z,98212.77
2019-05-02T14:11:05.518Z,98187.78
2019-05-02T14:13:33.219Z,98184.91
2019-05-02T14:16:02.142Z,98180.16
2019-05-02T14:18:31.070Z,98177.78
2019-05-02T14:20:57.848Z,98168.39
2019-05-02T14:23:26.411Z,98171.87
2019-05-02T14:25:53.274Z,98165.81
2019-05-02T14:28:19.870Z,98173.36
2019-05-02T14:30:46.835Z,98014.54
2019-05-02T14:33:17.910Z,98167.15
2019-05-02T14:35:44.991Z,98190.77
2019-05-02T14:38:14.997Z,98160.98
2019-05-02T14:40:52.073Z,98190.55
2019-05-02T14:43:38.104Z,98158.58
2019-05-02T14:46:06.442Z,98006.98
2019-05-02T14:48:41.765Z,98157.98
2019-05-02T14:51:05.354Z,98151.86
2019-05-02T14:53:32.399Z,97971.41
2019-05-02T14:56:04.440Z,98139.53
2019-05-02T14:58:29.508Z,98140.83
2019-05-02T15:00:56.919Z,98142.63
2019-05-02T15:03:28.323Z,98144.41
2019-05-02T15:05:52.775Z,98157.52
2019-05-02T15:08:19.750Z,98141.03
2019-05-02T15:10:52.356Z,98141.41
2019-05-02T15:13:15.230Z,98146.19
2019-05-02T15:15:43.487Z,98142.27
2019-05-02T15:18:15.843Z,97972.31
2019-05-02T15:20:39.545Z,98137.21
2019-05-02T15:23:07.132Z,98137.67
2019-05-02T15:25:35.254Z,98127.68
2019-05-02T15:28:02.497Z,98130.67
2019-05-02T15:30:29.302Z,98138.58
2019-05-02T15:33:03.935Z,98129.77
2019-05-02T15:35:35.999Z,98124.12
2019-05-02T15:38:06.670Z,98123.92
2019-05-02T15:40:32.854Z,97967.59
2019-05-02T15:43:06.273Z,98109.03
2019-05-02T15:45:32.064Z,98115.36
2019-05-02T15:47:59.347Z,98105.66
2019-05-02T15:50:26.051Z,98103.03
2019-05-02T15:52:57.191Z,98104.80
2019-05-02T15:55:23.898Z,98101.00
2019-05-02T15:57:50.899Z,98097.33
2019-05-02T16:00:22.993Z,98099.67
2019-05-02T16:02:49.160Z,98098.50
2019-05-02T16:05:16.360Z,98102.80
2019-05-02T16:07:46.674Z,98094.30
2019-05-02T16:10:13.154Z,98087.17
2019-05-02T16:12:41.795Z,98088.37
2019-05-02T16:15:18.217Z,98095.30
2019-05-02T16:17:37.923Z,98091.25
2019-05-02T16:20:10.764Z,98087.63
2019-05-02T16:22:38.191Z,98088.66
2019-05-02T16:25:05.726Z,98085.93
2019-05-02T16:27:39.821Z,98082.94
2019-05-02T16:30:08.511Z,98084.59
2019-05-02T16:32:38.002Z,98091.81
2019-05-02T16:35:12.254Z,98095.83
2019-05-02T16:37:35.231Z,98076.00
2019-05-02T16:40:02.723Z,98078.73
2019-05-02T16:42:30.128Z,98077.81
2019-05-02T16:44:56.848Z,98075.78
2019-05-02T16:47:23.682Z,98076.13
2019-05-02T16:49:53.321Z,98074.89
2019-05-02T16:52:19.142Z,98062.52
2019-05-02T16:54:45.932Z,98066.75
2019-05-02T16:57:17.499Z,98057.48
2019-05-02T16:59:42.594Z,98070.70
2019-05-02T17:07:34.907Z,98057.94
2019-05-02T17:10:16.214Z,98061.41
2019-05-02T17:12:39.502Z,98057.17
2019-05-02T17:15:26.255Z,98059.83
2019-05-02T17:17:54.494Z,98063.70
2019-05-02T17:20:22.148Z,98057.09
2019-05-02T17:22:50.358Z,98061.05
2019-05-02T17:25:17.691Z,98055.69
2019-05-02T17:27:45.610Z,98054.83
2019-05-02T17:30:12.399Z,98057.93
2019-05-02T17:32:41.415Z,98064.08
2019-05-02T17:35:10.193Z,98054.58
2019-05-02T17:37:40.725Z,98057.37
2019-05-02T17:40:06.673Z,98063.66
2019-05-02T17:42:33.790Z,98068.04
2019-05-02T17:45:03.682Z,98055.88
2019-05-02T17:47:30.863Z,98063.98
2019-05-02T17:50:01.979Z,98063.75
2019-05-02T17:52:32.386Z,98064.45
2019-05-02T17:55:01.735Z,98072.31
2019-05-02T17:57:28.501Z,98059.08
2019-05-02T18:00:02.840Z,98067.27
2019-05-02T18:02:31.628Z,98059.44
2019-05-02T18:04:58.496Z,98060.77
2019-05-02T18:07:32.116Z,98073.48
2019-05-02T18:09:53.997Z,98061.97
2019-05-02T18:12:21.786Z,98061.38
2019-05-02T18:14:53.068Z,98061.20
2019-05-02T18:17:17.560Z,98060.48
2019-05-02T18:19:44.295Z,98057.58
2019-05-02T18:22:23.585Z,98063.05
2019-05-02T18:24:44.824Z,98057.24
2019-05-02T18:27:09.483Z,98059.95
2019-05-02T18:29:42.564Z,98058.70
2019-05-02T18:32:24.501Z,98052.70
2019-05-02T18:34:51.768Z,98053.14
2019-05-02T18:37:18.401Z,98057.92
2019-05-02T18:39:50.918Z,98061.48
2019-05-02T18:42:16.652Z,98059.33
2019-05-02T18:44:42.862Z,98062.14
2019-05-02T18:47:12.601Z,98069.48
2019-05-02T18:49:38.439Z,98062.89
2019-05-02T18:52:05.468Z,98060.84
2019-05-02T18:54:33.809Z,98058.80
2019-05-02T18:57:02.484Z,98073.47
2019-05-02T18:59:31.919Z,98067.00
2019-05-02T19:01:59.837Z,98073.80
2019-05-02T19:04:34.915Z,98074.25
2019-05-02T19:06:56.246Z,98067.01
2019-05-02T19:09:29.855Z,98067.88
2019-05-02T19:11:52.416Z,98072.95
2019-05-02T19:14:22.216Z,98068.84
2019-05-02T19:16:47.917Z,98067.44
2019-05-02T19:19:14.767Z,97878.27
2019-05-02T19:21:41.803Z,98055.90
2019-05-02T19:24:09.228Z,98072.05
2019-05-02T19:26:36.169Z,98067.41
2019-05-02T19:29:14.032Z,98073.42
2019-05-02T19:31:42.199Z,98070.79
2019-05-02T19:34:11.716Z,98067.65
2019-05-02T19:36:40.990Z,98071.38
2019-05-02T19:39:09.933Z,98068.77
2019-05-02T19:41:39.029Z,98071.84
2019-05-02T19:44:05.443Z,98073.63
2019-05-02T19:46:38.530Z,98074.77
2019-05-02T19:49:02.086Z,98073.33
2019-05-02T19:51:29.260Z,98087.00
2019-05-02T19:53:59.665Z,98090.43
2019-05-02T19:56:25.260Z,98092.37
2019-05-02T19:58:52.274Z,98085.47
2019-05-02T20:01:23.018Z,98098.83
2019-05-02T20:03:48.788Z,98085.59
2019-05-02T20:06:15.543Z,98089.56
2019-05-02T20:08:42.979Z,98092.90
2019-05-02T20:11:12.460Z,98104.39
2019-05-02T20:13:39.329Z,98095.89
2019-05-02T20:16:12.158Z,98086.09
2019-05-02T20:18:43.538Z,98090.06
2019-05-02T20:21:23.504Z,98091.12
2019-05-02T20:23:43.229Z,98090.66
2019-05-02T20:26:15.443Z,98084.09
2019-05-02T20:28:39.405Z,98093.13
2019-05-02T20:31:06.417Z,98092.02
2019-05-02T20:33:32.998Z,98096.22
2019-05-02T20:36:01.872Z,98091.68
2019-05-02T20:38:29.576Z,98090.48
2019-05-02T20:40:56.342Z,98094.30
2019-05-02T20:43:23.167Z,98097.00
2019-05-02T20:45:52.822Z,98104.53
2019-05-02T20:48:20.259Z,98122.50
2019-05-02T20:50:47.888Z,98134.75
2019-05-02T20:53:14.968Z,98091.53
2019-05-02T20:55:41.779Z,98131.77
2019-05-02T20:58:09.251Z,98126.92
2019-05-02T21:00:37.231Z,98140.41
2019-05-02T21:03:04.243Z,98145.97
2019-05-02T21:05:35.368Z,98146.69
2019-05-02T21:08:09.847Z,98144.62
2019-05-02T21:10:38.337Z,98147.74
2019-05-02T21:13:05.169Z,98146.37
2019-05-02T21:15:32.380Z,98146.55
2019-05-02T21:18:02.169Z,98147.86
2019-05-02T21:20:29.650Z,98155.52
2019-05-02T21:22:56.471Z,98154.14
2019-05-02T21:25:23.898Z,98157.71
2019-05-02T21:27:52.344Z,98161.42
2019-05-02T21:30:24.636Z,98160.41
2019-05-02T21:32:52.045Z,98159.27
2019-05-02T21:35:19.163Z,98153.41
2019-05-02T21:37:45.771Z,98156.56
2019-05-02T21:40:13.403Z,98150.47
2019-05-02T21:42:40.103Z,98152.63
2019-05-02T21:45:07.111Z,98150.98
2019-05-02T21:47:34.242Z,98153.01
2019-05-02T21:50:05.921Z,98155.17
2019-05-02T21:52:34.959Z,98150.48
2019-05-02T21:55:19.448Z,98151.52
2019-05-02T21:57:46.686Z,98151.16
2019-05-02T22:00:19.661Z,98159.18
2019-05-02T22:02:46.457Z,98171.00
2019-05-02T22:05:13.199Z,98155.42
2019-05-02T22:07:41.708Z,98151.91
2019-05-02T22:10:08.817Z,98162.19
2019-05-02T22:12:36.040Z,98153.20
2019-05-02T22:15:04.277Z,98154.22
2019-05-02T22:17:32.290Z,98151.81
2019-05-02T22:19:59.194Z,98160.83
2019-05-02T22:22:26.304Z,98167.43
2019-05-02T22:24:53.295Z,98161.60
2019-05-02T22:27:21.813Z,98152.87
2019-05-02T22:29:49.049Z,98159.33
2019-05-02T22:32:16.146Z,97869.02
2019-05-02T22:34:45.288Z,98162.63
2019-05-02T22:37:14.526Z,98157.20
2019-05-02T22:39:44.011Z,98177.95
2019-05-02T22:42:12.848Z,98167.46
2019-05-02T22:44:41.738Z,98173.03
2019-05-02T22:47:09.028Z,98177.22
2019-05-02T22:49:36.507Z,98183.42
2019-05-02T22:52:03.497Z,98173.03
2019-05-02T22:54:33.748Z,98175.68
2019-05-02T22:57:02.445Z,98166.07
2019-05-02T22:59:31.599Z,98183.56
2019-05-02T23:01:58.839Z,98184.95
2019-05-02T23:04:26.407Z,98175.56
2019-05-02T23:06:53.430Z,98192.17
2019-05-02T23:09:22.018Z,98192.28
2019-05-02T23:11:51.699Z,98190.89
2019-05-02T23:14:19.235Z,98189.50
2019-05-02T23:16:46.974Z,98196.58
2019-05-02T23:19:13.800Z,98194.05
2019-05-02T23:21:42.192Z,98184.81
2019-05-02T23:24:11.745Z,98193.05
2019-05-02T23:26:58.553Z,98189.39
2019-05-02T23:29:25.992Z,98189.50
2019-05-02T23:31:53.779Z,98191.01
2019-05-02T23:34:23.540Z,98186.20
2019-05-02T23:36:52.177Z,98185.44
2019-05-02T23:39:19.994Z,98182.42
2019-05-02T23:41:47.811Z,98184.33
2019-05-02T23:44:14.927Z,98180.77
2019-05-02T23:46:42.818Z,98179.48
2019-05-02T23:49:12.530Z,98179.75
2019-05-02T23:51:39.307Z,98175.94
2019-05-02T23:54:07.199Z,98184.55
2019-05-02T23:56:34.975Z,98178.98
2019-05-02T23:59:02.786Z,98176.19
